createdAt,value
2018-10-09T00:02:07.998Z,9.70
2018-10-09T00:04:36.248Z,9.70
2018-10-09T00:07:04.427Z,9.70
2018-10-09T00:09:32.562Z,9.70
2018-10-09T00:12:00.714Z,9.60
2018-10-09T00:14:28.855Z,9.60
2018-10-09T00:16:56.970Z,9.60
2018-10-09T00:19:25.109Z,9.50
2018-10-09T00:21:53.235Z,9.50
2018-10-09T00:24:21.357Z,9.50
2018-10-09T00:26:49.503Z,9.40
2018-10-09T00:29:17.621Z,9.30
2018-10-09T00:31:45.773Z,9.30
2018-10-09T00:34:13.924Z,9.30
2018-10-09T00:36:42.043Z,9.30
2018-10-09T00:39:11.094Z,9.30
2018-10-09T00:41:39.244Z,9.30
2018-10-09T00:44:07.414Z,9.30
2018-10-09T00:46:35.610Z,9.30
2018-10-09T00:49:03.737Z,9.30
2018-10-09T00:51:31.875Z,9.30
2018-10-09T00:54:00.032Z,9.30
2018-10-09T00:56:28.161Z,9.30
2018-10-09T00:58:56.314Z,9.30
2018-10-09T01:01:35.406Z,9.30
2018-10-09T01:04:03.532Z,9.30
2018-10-09T01:06:31.675Z,9.30
2018-10-09T01:08:59.852Z,9.30
2018-10-09T01:11:27.919Z,9.40
2018-10-09T01:13:56.062Z,9.40
2018-10-09T01:16:24.176Z,9.40
2018-10-09T01:18:52.324Z,9.40
2018-10-09T01:21:20.463Z,9.40
2018-10-09T01:23:48.599Z,9.40
2018-10-09T01:26:16.726Z,9.40
2018-10-09T01:28:44.871Z,9.40
2018-10-09T01:31:13.008Z,9.30
2018-10-09T01:33:41.171Z,9.30
2018-10-09T01:36:09.284Z,9.30
2018-10-09T01:38:37.427Z,9.30
2018-10-09T01:41:05.590Z,9.30
2018-10-09T01:43:33.730Z,9.30
2018-10-09T01:46:01.853Z,9.30
2018-10-09T01:48:29.975Z,9.20
2018-10-09T01:50:58.110Z,9.20
2018-10-09T01:53:26.250Z,9.20
2018-10-09T01:55:54.382Z,9.20
2018-10-09T01:58:22.499Z,9.20
2018-10-09T02:00:50.669Z,9.20
2018-10-09T02:03:18.831Z,9.20
2018-10-09T02:05:46.981Z,9.20
2018-10-09T02:08:15.236Z,9.20
2018-10-09T02:10:43.366Z,9.30
2018-10-09T02:13:11.520Z,9.20
2018-10-09T02:15:39.652Z,9.30
2018-10-09T02:18:07.899Z,9.20
2018-10-09T02:20:36.039Z,9.30
2018-10-09T02:23:04.182Z,9.30
2018-10-09T02:25:32.303Z,9.30
2018-10-09T02:28:00.447Z,9.30
2018-10-09T02:30:28.601Z,9.20
2018-10-09T02:32:56.715Z,9.20
2018-10-09T02:35:24.869Z,9.20
2018-10-09T02:37:53.016Z,9.10
2018-10-09T02:40:21.139Z,9.10
2018-10-09T02:42:49.258Z,9.10
2018-10-09T02:45:17.399Z,9.10
2018-10-09T02:47:45.545Z,9.00
2018-10-09T02:50:13.681Z,9.10
2018-10-09T02:52:41.894Z,9.00
2018-10-09T02:55:10.054Z,9.00
2018-10-09T02:57:38.202Z,9.00
2018-10-09T03:00:07.274Z,9.00
2018-10-09T03:02:35.418Z,9.00
2018-10-09T03:05:03.833Z,9.00
2018-10-09T03:07:31.979Z,9.00
2018-10-09T03:10:00.120Z,8.90
2018-10-09T03:12:28.267Z,8.90
2018-10-09T03:14:56.524Z,9.00
2018-10-09T03:17:24.718Z,8.90
2018-10-09T03:19:52.835Z,8.90
2018-10-09T03:22:20.983Z,8.90
2018-10-09T03:24:49.144Z,8.90
2018-10-09T03:27:17.276Z,8.90
2018-10-09T03:29:45.418Z,8.90
2018-10-09T03:32:14.483Z,8.90
2018-10-09T03:34:42.606Z,8.90
2018-10-09T03:37:10.767Z,8.90
2018-10-09T03:39:38.923Z,8.90
2018-10-09T03:42:07.119Z,8.90
2018-10-09T03:44:35.246Z,8.90
2018-10-09T03:47:03.376Z,8.90
2018-10-09T03:49:31.523Z,8.80
2018-10-09T03:51:59.688Z,8.80
2018-10-09T03:54:27.822Z,8.80
2018-10-09T03:56:55.959Z,8.80
2018-10-09T03:59:24.085Z,8.80
2018-10-09T04:01:52.235Z,8.80
2018-10-09T04:04:20.382Z,8.80
2018-10-09T04:06:48.522Z,8.80
2018-10-09T04:09:16.711Z,8.80
2018-10-09T04:11:44.862Z,8.80
2018-10-09T04:14:12.981Z,8.80
2018-10-09T04:16:41.138Z,8.70
2018-10-09T04:19:09.407Z,8.80
2018-10-09T04:21:37.571Z,8.80
2018-10-09T04:24:05.759Z,8.80
2018-10-09T04:26:33.972Z,8.80
2018-10-09T04:29:02.090Z,8.80
2018-10-09T04:31:30.279Z,8.80
2018-10-09T04:33:58.414Z,8.80
2018-10-09T04:36:26.558Z,8.80
2018-10-09T04:38:54.683Z,8.80
2018-10-09T04:41:22.839Z,8.80
2018-10-09T04:43:50.968Z,8.80
2018-10-09T04:46:19.186Z,8.80
2018-10-09T04:48:47.303Z,8.90
2018-10-09T04:51:15.458Z,8.90
2018-10-09T04:53:43.740Z,8.90
2018-10-09T04:56:11.908Z,8.90
2018-10-09T04:58:40.043Z,8.90
2018-10-09T05:01:08.387Z,8.90
2018-10-09T05:03:36.563Z,8.90
2018-10-09T05:06:04.736Z,8.90
2018-10-09T05:08:32.877Z,8.80
2018-10-09T05:11:01.066Z,8.80
2018-10-09T05:13:29.209Z,8.80
2018-10-09T05:15:57.356Z,8.80
2018-10-09T05:18:25.631Z,8.80
2018-10-09T05:20:53.779Z,8.80
2018-10-09T05:23:21.952Z,8.80
2018-10-09T05:25:50.033Z,8.90
2018-10-09T05:28:18.182Z,8.90
2018-10-09T05:30:46.334Z,8.90
2018-10-09T05:33:14.474Z,8.90
2018-10-09T05:35:42.626Z,8.90
2018-10-09T05:38:11.085Z,8.90
2018-10-09T05:40:39.274Z,8.90
2018-10-09T05:43:07.490Z,8.90
2018-10-09T05:45:39.147Z,8.90
2018-10-09T05:48:08.055Z,8.90
2018-10-09T05:50:36.271Z,9.00
2018-10-09T05:53:04.816Z,9.00
2018-10-09T05:55:33.066Z,9.00
2018-10-09T05:58:01.477Z,9.00
2018-10-09T06:00:30.341Z,9.10
2018-10-09T06:02:58.731Z,9.10
2018-10-09T06:05:27.003Z,9.10
2018-10-09T06:07:55.175Z,9.00
2018-10-09T06:10:23.323Z,9.00
2018-10-09T06:12:51.494Z,9.00
2018-10-09T06:15:19.650Z,9.10
2018-10-09T06:17:47.762Z,9.10
2018-10-09T06:20:15.909Z,9.20
2018-10-09T06:22:44.059Z,9.20
2018-10-09T06:25:12.167Z,9.30
2018-10-09T06:27:40.431Z,9.30
2018-10-09T06:30:08.564Z,9.30
2018-10-09T06:32:36.703Z,9.40
2018-10-09T06:35:05.182Z,9.40
2018-10-09T06:37:33.318Z,9.40
2018-10-09T06:40:01.461Z,9.40
2018-10-09T06:42:29.605Z,9.50
2018-10-09T06:44:57.779Z,9.50
2018-10-09T06:47:26.316Z,9.60
2018-10-09T06:49:54.419Z,9.70
2018-10-09T06:52:22.626Z,9.70
2018-10-09T06:54:50.779Z,9.70
2018-10-09T06:57:18.922Z,9.80
2018-10-09T06:59:48.742Z,9.80
2018-10-09T07:02:16.939Z,9.90
2018-10-09T07:04:45.085Z,10.00
2018-10-09T07:07:13.225Z,10.00
2018-10-09T07:09:41.382Z,10.10
2018-10-09T07:12:09.541Z,10.20
2018-10-09T07:14:37.704Z,10.30
2018-10-09T07:17:06.228Z,10.30
2018-10-09T07:19:34.587Z,10.50
2018-10-09T07:22:02.869Z,10.50
2018-10-09T07:24:31.047Z,10.60
2018-10-09T07:26:59.253Z,10.60
2018-10-09T07:29:27.424Z,10.70
2018-10-09T07:31:55.547Z,10.70
2018-10-09T07:34:23.707Z,10.80
2018-10-09T07:36:51.965Z,10.90
2018-10-09T07:39:20.103Z,11.00
2018-10-09T07:41:48.239Z,11.10
2018-10-09T07:44:16.482Z,11.20
2018-10-09T07:46:44.567Z,11.20
2018-10-09T07:49:12.707Z,11.30
2018-10-09T07:51:40.844Z,11.40
2018-10-09T07:54:08.973Z,11.40
2018-10-09T07:56:37.115Z,11.50
2018-10-09T07:59:05.272Z,11.60
2018-10-09T08:01:33.514Z,11.70
2018-10-09T08:04:01.718Z,11.80
2018-10-09T08:06:30.033Z,12.00
2018-10-09T08:08:58.178Z,12.10
2018-10-09T08:11:26.356Z,12.20
2018-10-09T08:13:54.499Z,12.30
2018-10-09T08:16:22.718Z,12.30
2018-10-09T08:18:50.827Z,12.40
2018-10-09T08:21:18.983Z,12.40
2018-10-09T08:23:47.129Z,12.50
2018-10-09T08:26:15.267Z,12.60
2018-10-09T08:28:43.423Z,12.70
2018-10-09T08:31:11.641Z,12.80
2018-10-09T08:33:39.820Z,12.90
2018-10-09T08:36:07.962Z,13.00
2018-10-09T08:38:36.449Z,13.10
2018-10-09T08:41:04.625Z,13.10
2018-10-09T08:43:32.864Z,13.10
2018-10-09T08:46:01.023Z,13.10
2018-10-09T08:48:29.158Z,13.20
2018-10-09T08:50:57.355Z,13.40
2018-10-09T08:53:25.509Z,13.50
2018-10-09T08:55:53.650Z,13.70
2018-10-09T08:58:21.834Z,13.90
2018-10-09T09:00:49.999Z,14.10
2018-10-09T09:03:38.314Z,14.40
2018-10-09T09:06:06.419Z,14.60
2018-10-09T09:08:34.579Z,14.80
2018-10-09T09:11:02.752Z,15.00
2018-10-09T09:13:30.936Z,15.20
2018-10-09T09:15:59.106Z,15.30
2018-10-09T09:18:27.275Z,15.40
2018-10-09T09:20:55.529Z,15.40
2018-10-09T09:23:23.615Z,15.30
2018-10-09T09:25:51.771Z,15.30
2018-10-09T09:28:19.954Z,15.20
2018-10-09T09:30:48.148Z,15.10
2018-10-09T09:33:16.301Z,15.10
2018-10-09T09:35:44.435Z,15.00
2018-10-09T09:38:12.617Z,15.10
2018-10-09T09:40:40.821Z,15.10
2018-10-09T09:43:08.978Z,15.10
2018-10-09T09:45:37.195Z,15.20
2018-10-09T09:48:05.504Z,15.30
2018-10-09T09:50:33.683Z,15.40
2018-10-09T09:53:01.877Z,15.60
2018-10-09T09:55:30.069Z,15.70
2018-10-09T09:57:58.427Z,15.90
2018-10-09T10:00:32.011Z,16.10
2018-10-09T10:03:00.158Z,16.40
2018-10-09T10:05:28.347Z,16.60
2018-10-09T10:07:56.579Z,16.90
2018-10-09T10:10:24.751Z,17.10
2018-10-09T10:12:52.972Z,17.30
2018-10-09T10:15:21.228Z,17.50
2018-10-09T10:17:49.488Z,17.70
2018-10-09T10:20:17.654Z,18.00
2018-10-09T10:22:45.812Z,18.20
2018-10-09T10:25:13.976Z,18.30
2018-10-09T10:27:42.134Z,18.50
2018-10-09T10:30:10.495Z,18.70
2018-10-09T10:32:38.636Z,18.90
2018-10-09T10:35:07.427Z,19.10
2018-10-09T10:37:35.605Z,19.30
2018-10-09T10:40:03.774Z,19.50
2018-10-09T10:42:31.936Z,19.60
2018-10-09T10:45:00.111Z,19.70
2018-10-09T10:47:28.364Z,19.70
2018-10-09T10:49:56.455Z,19.80
2018-10-09T10:52:24.770Z,19.90
2018-10-09T10:54:52.964Z,19.90
2018-10-09T10:57:21.098Z,20.00
2018-10-09T10:59:49.275Z,20.00
2018-10-09T11:02:17.427Z,20.00
2018-10-09T11:04:45.592Z,20.00
2018-10-09T11:07:13.742Z,20.20
2018-10-09T11:09:41.919Z,20.30
2018-10-09T11:12:10.076Z,20.50
2018-10-09T11:14:38.343Z,20.60
2018-10-09T11:17:06.436Z,20.90
2018-10-09T11:19:34.623Z,21.10
2018-10-09T11:22:02.771Z,21.40
2018-10-09T11:24:30.920Z,21.70
2018-10-09T11:26:59.086Z,21.80
2018-10-09T11:29:27.259Z,21.90
2018-10-09T11:31:55.398Z,22.10
2018-10-09T11:34:23.614Z,22.30
2018-10-09T11:36:51.804Z,22.50
2018-10-09T11:39:19.996Z,22.60
2018-10-09T11:41:48.207Z,22.70
2018-10-09T11:44:16.361Z,22.90
2018-10-09T11:46:44.524Z,22.90
2018-10-09T11:49:12.688Z,22.90
2018-10-09T11:51:40.865Z,22.90
2018-10-09T11:54:09.089Z,22.80
2018-10-09T11:56:37.239Z,22.70
2018-10-09T11:59:05.513Z,22.70
2018-10-09T12:01:33.588Z,22.80
2018-10-09T12:04:01.740Z,22.90
2018-10-09T12:06:29.908Z,22.90
2018-10-09T12:08:58.072Z,23.00
2018-10-09T12:11:26.256Z,23.10
2018-10-09T12:13:54.387Z,23.30
2018-10-09T12:16:22.531Z,23.40
2018-10-09T12:18:50.729Z,23.70
2018-10-09T12:21:18.908Z,23.90
2018-10-09T12:23:47.072Z,24.20
2018-10-09T12:26:15.227Z,24.70
2018-10-09T12:28:43.407Z,25.20
2018-10-09T12:31:11.563Z,25.50
2018-10-09T12:33:39.699Z,25.90
2018-10-09T12:36:07.918Z,26.10
2018-10-09T12:38:36.033Z,26.60
2018-10-09T12:41:04.182Z,26.80
2018-10-09T12:43:32.352Z,26.80
2018-10-09T12:46:00.481Z,26.90
2018-10-09T12:48:28.630Z,26.80
2018-10-09T12:50:56.773Z,26.40
2018-10-09T12:53:24.902Z,26.10
2018-10-09T12:55:53.015Z,25.60
2018-10-09T12:58:21.187Z,25.20
2018-10-09T13:00:49.431Z,25.00
2018-10-09T13:03:17.575Z,24.80
2018-10-09T13:05:45.689Z,24.50
2018-10-09T13:08:13.835Z,24.10
2018-10-09T13:10:41.980Z,23.80
2018-10-09T13:13:10.143Z,23.50
2018-10-09T13:15:38.276Z,23.50
2018-10-09T13:18:06.420Z,23.60
2018-10-09T13:20:34.575Z,23.70
2018-10-09T13:23:02.686Z,23.80
2018-10-09T13:25:30.814Z,23.90
2018-10-09T13:27:58.945Z,24.00
2018-10-09T13:30:27.106Z,24.10
2018-10-09T13:32:55.272Z,24.30
2018-10-09T13:35:23.441Z,24.40
2018-10-09T13:37:51.586Z,24.50
2018-10-09T13:40:19.735Z,24.60
2018-10-09T13:42:47.850Z,24.70
2018-10-09T13:45:15.977Z,25.10
2018-10-09T13:47:44.115Z,26.10
2018-10-09T13:50:12.291Z,26.60
2018-10-09T13:52:40.403Z,27.30
2018-10-09T13:55:08.506Z,27.60
2018-10-09T13:57:36.854Z,27.50
2018-10-09T14:00:05.023Z,27.90
2018-10-09T14:02:33.190Z,28.60
2018-10-09T14:05:01.325Z,29.00
2018-10-09T14:07:29.482Z,29.40
2018-10-09T14:09:57.637Z,29.60
2018-10-09T14:12:25.729Z,29.50
2018-10-09T14:14:53.879Z,28.90
2018-10-09T14:17:21.992Z,29.20
2018-10-09T14:19:50.182Z,29.70
2018-10-09T14:22:18.383Z,29.90
2018-10-09T14:24:46.507Z,30.20
2018-10-09T14:27:14.682Z,29.70
2018-10-09T14:29:42.815Z,29.00
2018-10-09T14:32:10.946Z,28.30
2018-10-09T14:34:39.064Z,27.80
2018-10-09T14:37:07.622Z,27.40
2018-10-09T14:39:35.753Z,27.00
2018-10-09T14:42:03.882Z,26.40
2018-10-09T14:44:32.003Z,26.00
2018-10-09T14:47:00.137Z,25.60
2018-10-09T14:49:28.269Z,25.30
2018-10-09T14:51:56.378Z,24.90
2018-10-09T14:54:24.558Z,24.60
2018-10-09T14:56:52.696Z,24.40
2018-10-09T14:59:20.929Z,24.50
2018-10-09T15:01:49.074Z,24.50
2018-10-09T15:04:17.306Z,24.40
2018-10-09T15:06:45.430Z,24.20
2018-10-09T15:09:14.234Z,24.00
2018-10-09T15:11:43.032Z,23.90
2018-10-09T15:14:11.311Z,23.80
2018-10-09T15:16:39.689Z,23.90
2018-10-09T15:19:08.206Z,24.20
2018-10-09T15:21:36.384Z,24.50
2018-10-09T15:24:04.463Z,24.50
2018-10-09T15:26:32.617Z,24.40
2018-10-09T15:29:00.846Z,24.20
2018-10-09T15:31:28.911Z,24.00
2018-10-09T15:33:57.050Z,23.80
2018-10-09T15:36:25.235Z,23.70
2018-10-09T15:38:53.365Z,23.50
2018-10-09T15:41:21.509Z,23.40
2018-10-09T15:43:49.596Z,23.30
2018-10-09T15:46:17.716Z,23.20
2018-10-09T15:48:45.834Z,23.10
2018-10-09T15:51:13.930Z,23.00
2018-10-09T15:53:42.126Z,22.90
2018-10-09T15:56:10.278Z,22.90
2018-10-09T15:58:38.398Z,22.80
2018-10-09T16:01:06.558Z,22.70
2018-10-09T16:03:34.682Z,22.60
2018-10-09T16:06:02.860Z,22.50
2018-10-09T16:08:31.047Z,22.40
2018-10-09T16:10:59.154Z,22.30
2018-10-09T16:13:27.298Z,22.10
2018-10-09T16:15:55.406Z,22.00
2018-10-09T16:18:23.534Z,21.90
2018-10-09T16:20:51.771Z,21.80
2018-10-09T16:23:19.734Z,21.70
2018-10-09T16:25:47.842Z,21.60
2018-10-09T16:28:15.954Z,21.50
2018-10-09T16:30:44.072Z,21.30
2018-10-09T16:33:12.181Z,21.20
2018-10-09T16:35:40.282Z,21.10
2018-10-09T16:38:08.399Z,21.00
2018-10-09T16:40:36.651Z,20.90
2018-10-09T16:43:04.874Z,20.80
2018-10-09T16:45:33.045Z,20.70
2018-10-09T16:48:01.162Z,20.50
2018-10-09T16:50:29.254Z,20.40
2018-10-09T16:52:57.412Z,20.30
2018-10-09T16:55:25.538Z,20.20
2018-10-09T16:57:53.639Z,20.00
2018-10-09T17:00:21.777Z,19.90
2018-10-09T17:02:49.848Z,19.80
2018-10-09T17:05:17.937Z,19.70
2018-10-09T17:07:46.052Z,19.60
2018-10-09T17:10:14.159Z,19.50
2018-10-09T17:12:42.274Z,19.40
2018-10-09T17:15:10.395Z,19.20
2018-10-09T17:17:38.521Z,19.10
2018-10-09T17:20:07.589Z,19.00
2018-10-09T17:22:35.724Z,18.90
2018-10-09T17:25:04.047Z,18.80
2018-10-09T17:27:32.163Z,18.70
2018-10-09T17:30:00.296Z,18.60
2018-10-09T17:32:28.437Z,18.40
2018-10-09T17:34:56.542Z,18.30
2018-10-09T17:37:24.662Z,18.20
2018-10-09T17:39:52.779Z,18.10
2018-10-09T17:42:20.956Z,18.10
2018-10-09T17:44:49.029Z,18.00
2018-10-09T17:47:17.154Z,17.90
2018-10-09T17:49:45.257Z,17.80
2018-10-09T17:52:13.358Z,17.70
2018-10-09T17:54:41.500Z,17.70
2018-10-09T17:57:09.609Z,17.60
2018-10-09T17:59:37.707Z,17.40
2018-10-09T18:02:05.849Z,17.40
2018-10-09T18:04:34.266Z,17.30
2018-10-09T18:07:02.388Z,17.20
2018-10-09T18:09:30.546Z,17.20
2018-10-09T18:11:58.756Z,17.10
2018-10-09T18:14:26.912Z,17.10
2018-10-09T18:16:54.975Z,17.00
2018-10-09T18:19:23.295Z,17.00
2018-10-09T18:21:51.846Z,16.90
2018-10-09T18:24:19.943Z,16.80
2018-10-09T18:26:48.313Z,16.70
2018-10-09T18:29:16.434Z,16.70
2018-10-09T18:31:44.537Z,16.60
2018-10-09T18:34:12.711Z,16.50
2018-10-09T18:36:40.822Z,16.40
2018-10-09T18:39:12.690Z,16.40
2018-10-09T18:41:41.156Z,16.30
2018-10-09T18:44:09.139Z,16.30
2018-10-09T18:46:37.258Z,16.20
2018-10-09T18:49:05.548Z,16.20
2018-10-09T18:51:33.998Z,16.20
2018-10-09T18:54:02.034Z,16.10
2018-10-09T18:56:30.171Z,16.10
2018-10-09T18:58:58.701Z,16.10
2018-10-09T19:01:26.820Z,16.10
2018-10-09T19:03:55.094Z,16.00
2018-10-09T19:06:23.326Z,15.90
2018-10-09T19:08:51.609Z,15.90
2018-10-09T19:11:23.042Z,15.90
2018-10-09T19:13:51.461Z,15.90
2018-10-09T19:16:19.651Z,15.90
2018-10-09T19:18:47.781Z,15.80
2018-10-09T19:21:15.901Z,15.70
2018-10-09T19:23:44.270Z,15.70
2018-10-09T19:26:12.400Z,15.60
2018-10-09T19:28:40.742Z,15.50
2018-10-09T19:31:09.073Z,15.50
2018-10-09T19:33:37.383Z,15.40
2018-10-09T19:36:05.511Z,15.40
2018-10-09T19:38:33.766Z,15.30
2018-10-09T19:41:02.074Z,15.30
2018-10-09T19:43:30.203Z,15.20
2018-10-09T19:45:59.380Z,15.20
2018-10-09T19:48:27.562Z,15.10
2018-10-09T19:50:56.599Z,15.00
2018-10-09T19:53:25.376Z,15.00
2018-10-09T19:55:54.326Z,14.90
2018-10-09T19:58:23.265Z,14.90
2018-10-09T20:00:52.311Z,14.90
2018-10-09T20:03:21.161Z,14.90
2018-10-09T20:05:50.050Z,14.90
2018-10-09T20:08:18.879Z,14.80
2018-10-09T20:10:47.988Z,14.80
2018-10-09T20:13:16.878Z,14.70
2018-10-09T20:15:45.939Z,14.70
2018-10-09T20:18:14.916Z,14.70
2018-10-09T20:20:43.931Z,14.70
2018-10-09T20:23:12.979Z,14.70
2018-10-09T20:25:41.930Z,14.60
2018-10-09T20:28:10.853Z,14.60
2018-10-09T20:30:40.037Z,14.60
2018-10-09T20:33:08.935Z,14.50
2018-10-09T20:35:37.901Z,14.50
2018-10-09T20:38:06.984Z,14.50
2018-10-09T20:40:36.010Z,14.50
2018-10-09T20:43:05.131Z,14.40
2018-10-09T20:45:34.360Z,14.50
2018-10-09T20:48:03.122Z,14.50
2018-10-09T20:50:32.035Z,14.40
2018-10-09T20:53:00.931Z,14.40
2018-10-09T20:55:30.444Z,14.40
2018-10-09T20:57:59.962Z,14.40
2018-10-09T21:00:28.782Z,14.30
2018-10-09T21:02:57.706Z,14.30
2018-10-09T21:05:26.698Z,14.30
2018-10-09T21:07:56.003Z,14.30
2018-10-09T21:10:25.025Z,14.20
2018-10-09T21:12:53.194Z,14.20
2018-10-09T21:15:21.446Z,14.20
2018-10-09T21:17:49.699Z,14.10
2018-10-09T21:20:17.763Z,14.10
2018-10-09T21:22:45.919Z,14.10
2018-10-09T21:25:14.030Z,14.00
2018-10-09T21:27:42.349Z,14.00
2018-10-09T21:30:10.473Z,13.90
2018-10-09T21:32:38.585Z,13.80
2018-10-09T21:35:07.442Z,13.80
2018-10-09T21:37:35.582Z,13.70
2018-10-09T21:40:03.704Z,13.60
2018-10-09T21:42:31.853Z,13.60
2018-10-09T21:44:59.982Z,13.50
2018-10-09T21:47:28.191Z,13.50
2018-10-09T21:49:56.311Z,13.50
2018-10-09T21:52:24.438Z,13.50
2018-10-09T21:54:52.558Z,13.40
2018-10-09T21:57:20.710Z,13.30
2018-10-09T21:59:48.842Z,13.30
2018-10-09T22:02:17.028Z,13.30
2018-10-09T22:04:45.146Z,13.30
2018-10-09T22:07:16.373Z,13.30
2018-10-09T22:09:44.523Z,13.20
2018-10-09T22:12:12.783Z,13.20
2018-10-09T22:14:40.930Z,13.10
2018-10-09T22:17:09.074Z,13.10
2018-10-09T22:19:37.234Z,13.10
2018-10-09T22:22:05.358Z,13.10
2018-10-09T22:24:33.596Z,13.10
2018-10-09T22:27:01.574Z,13.10
2018-10-09T22:29:29.673Z,13.10
2018-10-09T22:31:57.791Z,13.10
2018-10-09T22:34:25.931Z,13.10
2018-10-09T22:36:54.080Z,13.10
2018-10-09T22:39:22.191Z,13.00
2018-10-09T22:41:50.329Z,13.00
2018-10-09T22:44:18.540Z,12.90
2018-10-09T22:46:46.646Z,12.90
2018-10-09T22:49:14.737Z,12.90
2018-10-09T22:51:42.878Z,12.90
2018-10-09T22:54:11.009Z,12.90
2018-10-09T22:56:39.162Z,12.90
2018-10-09T22:59:07.295Z,12.80
2018-10-09T23:01:35.415Z,12.80
2018-10-09T23:04:03.600Z,12.80
2018-10-09T23:06:31.725Z,12.70
2018-10-09T23:08:59.845Z,12.70
2018-10-09T23:11:27.976Z,12.70
2018-10-09T23:13:56.122Z,12.60
2018-10-09T23:16:24.278Z,12.60
2018-10-09T23:18:52.476Z,12.60
2018-10-09T23:21:20.589Z,12.50
2018-10-09T23:23:48.690Z,12.50
2018-10-09T23:26:16.832Z,12.50
2018-10-09T23:28:44.987Z,12.50
2018-10-09T23:31:13.132Z,12.40
2018-10-09T23:33:41.223Z,12.40
2018-10-09T23:36:09.338Z,12.40
2018-10-09T23:38:37.453Z,12.30
2018-10-09T23:41:05.918Z,12.30
2018-10-09T23:43:34.194Z,12.30
2018-10-09T23:46:02.323Z,12.20
2018-10-09T23:48:30.439Z,12.20
2018-10-09T23:50:58.554Z,12.20
2018-10-09T23:53:26.675Z,12.20
2018-10-09T23:55:54.788Z,12.10
2018-10-09T23:58:22.895Z,12.10
